Latest Coastal Weather Observations for Eucla

IDS60701

Issued at 7:31 am CST Wednesday 4 May 2016 (issued every 10 minutes, with the page automatically refreshed every 10 minutes)

About coastal observations | Map of coastal stations | Coastal observations for SA | Marine services | Other Formats
Station Details ID: 011003 Name: EUCLA Lat: -31.68 Lon: 128.90 Height: 93.1 m
Data from the previous 72 hours. | See also: Recent months at Eucla
Date/Time
CST
Temp

°C
Wind Pressure Rain
since 9am
mm
Weather Cloud Vis
km
Sea
Height
m
Swell
Dir
 
Speed
knots
Gust
knots
hPa Trend Height
m
Period
s
Dir
04/07:30am 8.4 NNW 7 9 1018.3 - 0.0 - - - - - - -
04/07:00am 9.2 NNW 6 7 1018.2 - 0.0 - - - - - - -
04/06:30am 9.2 NNW 7 8 1018.1 - 0.0 - - - - - - -
04/06:00am 9.0 NNW 6 8 1017.8 - 0.0 - - - - - - -
04/05:30am 9.8 NW 5 7 1017.6 - 0.0 - - - - - - -
04/05:00am 9.2 NNW 5 7 1017.7 - 0.0 - - - - - - -
04/04:30am 9.6 NNW 5 6 1017.5 - 0.0 - - - - - - -
04/04:00am 9.3 NNW 5 6 1017.5 - 0.0 - - - - - - -
04/03:30am 9.9 NNW 5 6 1017.7 - 0.0 - - - - - - -
04/03:00am 11.1 WNW 4 5 1017.7 - 0.0 - - - - - - -
04/02:30am 12.5 W 5 6 1017.8 - 0.0 - - - - - - -
04/02:00am 11.8 WNW 5 5 1017.9 - 0.0 - - - - - - -
04/01:30am 13.2 W 5 6 1017.9 - 0.0 - - - - - - -
04/01:00am 13.2 W 5 6 1017.9 - 0.0 - - - - - - -
04/12:30am 13.0 W 5 5 1018.1 - 0.0 - - - - - - -
04/12:00am 13.2 W 5 5 1018.3 - 0.0 - - - - - - -
 
Date/Time
CST
Temp

°C
Wind Pressure Rain
since 9am
mm
Weather Cloud Vis
km
Sea
Height
m
Swell
Dir
 
Speed
knots
Gust
knots
hPa Trend Height
m
Period
s
Dir
03/11:30pm 14.3 WSW 4 6 1018.7 - 0.0 - - - - - - -
03/11:00pm 14.9 WSW 5 6 1019.0 - 0.0 - - - - - - -
03/10:30pm 15.2 WSW 5 5 1019.0 - 0.0 - - - - - - -
03/10:00pm 15.2 WSW 6 7 1019.2 - 0.0 - - - - - - -
03/09:30pm 15.5 WSW 6 8 1019.3 - 0.0 - - - - - - -
03/09:00pm 15.7 WSW 6 8 1019.2 - 0.0 - - - - - - -
03/08:30pm 15.8 W 5 6 1018.9 - 0.0 - - - - - - -
03/08:00pm 16.1 WSW 5 7 1018.8 - 0.0 - - - - - - -
03/07:30pm 16.2 SW 5 8 1018.4 - 0.0 - - - - - - -
03/07:00pm 17.0 SW 6 9 1018.1 - 0.0 - - - - - - -
03/06:30pm 17.1 SW 8 12 1017.7 - 0.0 - - - - - - -
03/06:00pm 18.2 SW 10 17 1017.5 - 0.0 - - - - - - -
03/05:30pm 18.3 SW 9 16 1017.3 - 0.0 - - - - - - -
03/05:00pm 18.8 SW 11 16 1017.1 - 0.0 - - - - - - -
03/04:30pm 19.3 SW 11 18 1016.8 - 0.0 Haze Partly cloudy 15 - - - -
03/04:00pm 19.7 SW 10 16 1016.5 - 0.0 - - - - - - -
03/03:30pm 19.4 SW 11 18 1016.2 - 0.0 - - - - - - -
03/03:00pm 19.3 SW 11 19 1016.1 - 0.0 - - - - - - -
03/02:30pm 19.3 SW 14 22 1015.9 - 0.0 - - - - - - -
03/02:00pm 19.9 SW 10 18 1015.9 - 0.0 - - - - - - -
03/01:30pm 18.6 SW 10 16 1016.4 - 0.0 - - - - - - -
03/01:00pm 18.9 WSW 9 16 1016.6 - 0.0 - - - - - - -
03/12:30pm 19.5 SW 13 19 1016.8 - 0.0 - - - - - - -
03/12:00pm 20.0 WSW 10 15 1017.0 - 0.0 - - - - - - -
03/11:30am 19.9 SW 10 17 1016.9 - 0.0 - - - - - - -
03/11:00am 18.4 WSW 8 14 1017.1 - 0.0 - - - - - - -
03/10:30am 20.2 W 9 14 1016.9 - 0.0 Haze Mostly cloudy 25 - - - -
03/10:00am 18.5 WNW 8 13 1016.7 - 0.0 - - - - - - -
03/09:30am 16.5 WNW 8 11 1016.5 - 0.0 - - - - - - -
03/09:00am 15.4 WNW 8 12 1016.3 - 0.0 - - - - - - -
03/08:30am 14.4 WNW 7 11 1016.0 - 0.0 - - - - - - -
03/08:00am 14.9 WNW 7 10 1015.6 - 0.0 - - - - - - -
03/07:30am 13.9 WNW 8 14 1015.2 - 0.0 - - - - - - -
03/07:00am 12.2 WNW 8 11 1014.9 - 0.0 - - - - - - -
03/06:30am 12.2 WNW 8 11 1014.7 - 0.0 - - - - - - -
03/06:00am 12.3 WNW 8 11 1014.6 - 0.0 - - - - - - -
03/05:30am 15.1 WNW 8 10 1014.2 - 0.0 - - - - - - -
03/05:00am 13.9 WNW 8 11 1014.1 - 0.0 - - - - - - -
03/04:30am 13.2 WNW 7 9 1014.0 - 0.0 - - - - - - -
03/04:00am 14.6 WNW 6 8 1014.0 - 0.0 - - - - - - -
03/03:30am 14.6 W 9 14 1014.0 - 0.0 - - - - - - -
03/03:00am 15.1 W 8 14 1013.9 - 0.0 - - - - - - -
03/02:30am 13.5 WNW 7 10 1013.9 - 0.0 - - - - - - -
03/02:00am 14.2 NW 8 13 1013.8 - 0.0 - - - - - - -
03/01:30am 13.3 WNW 8 14 1014.0 - 0.0 - - - - - - -
03/01:00am 13.6 WNW 8 11 1014.5 - 0.0 - - - - - - -
03/12:30am 14.0 WNW 6 10 1014.8 - 0.0 - - - - - - -
03/12:00am 14.5 WNW 7 9 1014.9 - 0.0 - - - - - - -
 
Date/Time
CST
Temp

°C
Wind Pressure Rain
since 9am
mm
Weather Cloud Vis
km
Sea
Height
m
Swell
Dir
 
Speed
knots
Gust
knots
hPa Trend Height
m
Period
s
Dir
02/11:30pm 11.1 NW 6 8 1015.3 - 0.0 - - - - - - -
02/11:00pm 11.9 NW 6 6 1015.6 - 0.0 - - - - - - -
02/10:30pm 11.2 NW 6 6 1015.6 - 0.0 - - - - - - -
02/10:00pm 11.7 NW 6 6 1015.6 - 0.0 - - - - - - -
02/09:30pm 11.4 NNW 5 5 1015.4 - 0.0 - - - - - - -
02/09:00pm 11.6 NW 5 5 1015.3 - 0.0 - - - - - - -
02/08:30pm 14.1 W 4 5 1015.3 - 0.0 - - - - - - -
02/08:00pm 14.4 WSW 5 5 1015.4 - 0.0 - - - - - - -
02/07:30pm 15.6 SW 5 7 1015.3 - 0.0 - - - - - - -
02/07:00pm 16.6 SSW 5 6 1014.9 - 0.0 - - - - - - -
02/06:30pm 17.8 S 5 7 1014.7 - 0.0 - - - - - - -
02/06:00pm 21.0 W 8 12 1014.2 - 0.0 - - - - - - -
02/05:30pm 22.0 WNW 12 16 1014.0 - 0.0 - - - - - - -
02/05:00pm 22.8 WNW 10 16 1014.1 - 0.0 - - - - - - -
02/04:30pm 23.2 WNW 13 22 1014.1 - 0.0 Fine Clear 40 - - - -
02/04:00pm 23.5 W 12 20 1014.2 - 0.0 - - - - - - -
02/03:30pm 23.5 W 11 19 1014.5 - 0.0 - - - - - - -
02/03:00pm 23.4 W 11 18 1014.8 - 0.0 - - - - - - -
02/02:30pm 23.3 W 13 19 1015.1 - 0.0 - - - - - - -
02/02:00pm 22.7 WNW 12 22 1015.5 - 0.0 - - - - - - -
02/01:30pm 22.6 WNW 13 21 1015.9 - 0.0 - - - - - - -
02/01:00pm 21.7 WNW 12 17 1016.7 - 0.0 - - - - - - -
02/12:30pm 21.6 W 11 18 1017.3 - 0.0 - - - - - - -
02/12:00pm 20.8 WNW 12 18 1017.8 - 0.0 - - - - - - -
02/11:30am 19.7 WNW 10 16 1018.2 - 0.0 - - - - - - -
02/11:00am 19.3 WNW 10 14 1018.6 - 0.0 - - - - - - -
02/10:30am 18.1 NW 9 13 1018.6 - 0.0 Fine Clear 40 - - - -
02/10:00am 16.3 NW 9 13 1018.6 - 0.0 - - - - - - -
02/09:30am 13.8 NNW 9 11 1018.4 - 0.0 - - - - - - -
02/09:00am 11.0 NNW 8 10 1018.3 - 0.0 - - - - - - -
02/08:30am 9.0 NNW 7 10 1018.1 - 0.0 - - - - - - -
02/08:00am 7.7 NNW 8 9 1018.0 - 0.0 - - - - - - -
02/07:30am 7.2 NNW 7 9 1017.7 - 0.0 - - - - - - -
02/07:00am 7.3 NNW 8 9 1017.5 - 0.0 - - - - - - -
02/06:30am 7.1 NNW 7 8 1017.3 - 0.0 - - - - - - -
02/06:00am 6.8 NNW 7 8 1017.3 - 0.0 - - - - - - -
02/05:30am 7.4 NNW 7 8 1017.2 - 0.0 - - - - - - -
02/05:00am 7.5 NNW 7 8 1017.2 - 0.0 - - - - - - -
02/04:30am 7.5 NNW 6 8 1017.4 - 0.0 - - - - - - -
02/04:00am 7.3 NNW 6 7 1017.7 - 0.0 - - - - - - -
02/03:30am 7.3 NNW 6 7 1017.9 - 0.0 - - - - - - -
02/03:00am 7.6 NNW 6 7 1018.1 - 0.0 - - - - - - -
02/02:30am 7.7 N 6 7 1018.2 - 0.0 - - - - - - -
02/02:00am 7.9 NNW 6 6 1018.4 - 0.0 - - - - - - -
02/01:30am 7.9 NNW 5 6 1018.5 - 0.0 - - - - - - -
02/01:00am 8.1 N 5 6 1018.8 - 0.0 - - - - - - -
02/12:30am 8.6 NNW 5 6 1019.1 - 0.0 - - - - - - -
02/12:00am 8.7 NNW 5 6 1019.4 - 0.0 - - - - - - -
 
Date/Time
CST
Temp

°C
Wind Pressure Rain
since 9am
mm
Weather Cloud Vis
km
Sea
Height
m
Swell
Dir
 
Speed
knots
Gust
knots
hPa Trend Height
m
Period
s
Dir
01/11:30pm 9.3 NNW 6 6 1019.7 - 0.0 - - - - - - -
01/11:00pm 9.6 NNW 5 6 1020.0 - 0.0 - - - - - - -
01/10:30pm 10.1 NNW 5 6 1020.2 - 0.0 - - - - - - -
01/10:00pm 11.1 WNW 5 6 1020.2 - 0.0 - - - - - - -
01/09:30pm 11.1 W 5 6 1020.2 - 0.0 - - - - - - -
01/09:00pm 12.5 W 5 5 1020.0 - 0.0 - - - - - - -
01/08:30pm 11.2 WSW 4 5 1019.9 - 0.0 - - - - - - -
01/08:00pm 12.3 SW 5 6 1019.5 - 0.0 - - - - - - -
01/07:30pm 13.1 SSW 4 5 1019.4 - 0.0 - - - - - - -
01/07:00pm 13.7 SSW 5 5 1019.1 - 0.0 - - - - - - -
01/06:30pm 14.7 SSW 5 6 1018.9 - 0.0 - - - - - - -
01/06:00pm 15.8 S 6 8 1018.5 - 0.0 - - - - - - -
01/05:30pm 16.7 S 7 9 1018.4 - 0.0 - - - - - - -
01/05:00pm 17.5 S 6 9 1018.2 - 0.0 - - - - - - -
01/04:30pm 18.3 SSE 7 9 1018.3 - 0.0 Fine Mostly clear 40 - - - -
01/04:00pm 18.7 S 8 11 1018.3 - 0.0 - - - - - - -
01/03:30pm 18.8 SSE 7 10 1018.4 - 0.0 - - - - - - -
01/03:00pm 19.6 SSE 8 12 1018.5 - 0.0 - - - - - - -
01/02:30pm 18.5 SE 6 11 1018.8 - 0.0 - - - - - - -
01/02:00pm 18.8 SSE 6 9 1019.0 - 0.0 - - - - - - -
01/01:30pm 18.5 S 6 9 1019.7 - 0.0 - - - - - - -
01/01:00pm 19.6 W 7 11 1020.0 - 0.0 - - - - - - -
01/12:30pm 18.7 WNW 5 8 1020.6 - 0.0 - - - - - - -
01/12:00pm 17.7 WSW 7 11 1020.9 - 0.0 - - - - - - -
01/11:30am 18.1 W 7 11 1021.1 - 0.0 - - - - - - -
01/11:00am 16.7 WSW 8 10 1021.4 - 0.0 - - - - - - -
01/10:30am 17.6 WSW 7 9 1021.5 - 0.0 Fine Partly cloudy 40 - - - -
01/10:00am 16.9 W 7 10 1021.6 - 0.0 - - - - - - -
01/09:30am 15.2 W 5 7 1021.6 - 0.0 - - - - - - -

Other Formats:

Comma delimited format used in spreadsheet applications
http://www.bom.gov.au/fwo/IDS60701/IDS60701.94647.axf

JavaScript Object Notation format (JSON) in row-major order
http://www.bom.gov.au/fwo/IDS60701/IDS60701.94647.json